Terminal Aerodrome Forecast
Issued by NWS

Home | Current Version | Previous Version | Text Only | Print | Product List | Glossary On
Versions: 1 2 3 4 5 6 7 8 9 10 11 12 13 14 15 16 17 18 19 20 21
000
FTUS43 KICT 032338
TAFCNU
TAF
KCNU 032338Z 0400/0424 35012KT P6SM OVC025
      TEMPO 0401/0405 6SM -RA
     FM040500 01014KT 5SM -FZRAPL OVC025
     FM041100 01016G23KT 3SM -SN OVC018
     FM042100 02011KT P6SM SCT020 BKN100=

USA.gov is the U.S. government's official web portal to all federal, state and local government web resources and services.